Flight Track Log - Related Links

Times and Time Zones

All times are in EDT time to prevent confusion due to time zone crossing. See the DLH917 flight status page for this flight to view local times or setup timezone preferences in your user account.

Time Position Orientation Groundspeed Altitude Reporting Facility
EDT Latitude Longitude Course Direction KTS MPH feet Rate Location/Type
Fri 02:31:00 PM 51.4117 0.0825 101° East  Level Estimated
Fri 02:32:00 PM 51.3949 0.2182 101° East  Level Estimated
Fri 02:33:00 PM 51.3779 0.3538 101° East  Level Estimated
Fri 02:34:00 PM 51.3607 0.4893 101° East  Level Estimated
Fri 02:35:00 PM 51.3434 0.6247 102° East  Level Estimated
Fri 02:36:00 PM 51.3259 0.7600 102° East  Level Estimated
Fri 02:37:00 PM 51.3083 0.8952 102° East  Level Estimated
Fri 02:38:00 PM 51.2905 1.0303 102° East  Level Estimated
Fri 02:39:00 PM 51.2726 1.1653 102° East  Level Estimated
Fri 02:40:00 PM 51.2545 1.3002 102° East  Level Estimated
Fri 02:41:00 PM 51.2363 1.4350 102° East  Level Estimated
Fri 02:42:00 PM 51.2179 1.5696 102° East  Level Estimated
Fri 02:43:00 PM 51.1993 1.7042 102° East  Level Estimated
Fri 02:44:00 PM 51.1806 1.8387 102° East  Level Estimated
Fri 02:45:00 PM 51.1618 1.9730 103° East  Level Estimated
Fri 02:46:00 PM 51.1427 2.1072 103° East  Level Estimated
Fri 02:47:00 PM 51.1236 2.2414 103° East  Level Estimated
Fri 02:48:00 PM 51.1043 2.3754 103° East  Level Estimated
Fri 02:49:00 PM 51.0848 2.5093 103° East  Level Estimated
Fri 02:50:00 PM 51.0652 2.6431 103° East  Level Estimated
Fri 02:51:00 PM 51.0454 2.7768 103° East  Level Estimated
Fri 02:52:00 PM 51.0255 2.9103 103° East  Level Estimated
Fri 02:53:00 PM 51.0054 3.0438 103° East  Level Estimated
Fri 02:54:00 PM 50.9851 3.1771 104° East  Level Estimated
Fri 02:55:00 PM 50.9647 3.3103 104° East  Level Estimated
Fri 02:56:00 PM 50.9442 3.4434 104° East  Level Estimated
Fri 02:57:00 PM 50.9235 3.5764 104° East  Level Estimated
Fri 02:58:00 PM 50.9027 3.7092 104° East  Level Estimated
Fri 02:59:00 PM 50.8817 3.8420 104° East  Level Estimated
Fri 03:00:00 PM 50.8605 3.9746 104° East  Level Estimated
Fri 03:01:00 PM 50.8393 4.1071 104° East  Level Estimated
Fri 03:02:00 PM 50.8178 4.2395 104° East  Level Estimated
Fri 03:03:00 PM 50.7962 4.3717 104° East  Level Estimated
Fri 03:04:00 PM 50.7745 4.5039 105° East  Level Estimated
Fri 03:05:00 PM 50.7526 4.6359 105° East  Level Estimated
Fri 03:06:00 PM 50.7306 4.7678 105° East  Level Estimated
Fri 03:07:00 PM 50.7084 4.8995 105° East  Level Estimated
Fri 03:08:00 PM 50.6860 5.0312 105° East  Level Estimated
Fri 03:09:00 PM 50.6636 5.1627 105° East  Level Estimated
Fri 03:10:00 PM 50.6409 5.2941 105° East  Level Estimated
Fri 03:11:00 PM 50.6181 5.4253 105° East  Level Estimated
Fri 03:12:00 PM 50.5952 5.5565 105° East  Level Estimated
Fri 03:13:00 PM 50.5722 5.6875 105° East  Level Estimated
Fri 03:14:00 PM 50.5489 5.8183 106° East  Level Estimated
Fri 03:15:00 PM 50.5256 5.9491 106° East  Level Estimated
Fri 03:16:00 PM 50.5020 6.0797 106° East  Level Estimated
Fri 03:17:00 PM 50.4784 6.2102 106° East  Level Estimated
Fri 03:18:00 PM 50.4546 6.3405 106° East  Level Estimated
Fri 03:19:00 PM 50.4306 6.4707 106° East  Level Estimated
Fri 03:20:00 PM 50.4066 6.6008 106° East  Level Estimated
Fri 03:21:00 PM 50.3823 6.7308 106° East  Level Estimated
Fri 03:22:00 PM 50.3579 6.8606 106° East  Level Estimated
Fri 03:23:00 PM 50.3334 6.9903 106° East  Level Estimated
Fri 03:24:00 PM 50.3087 7.1199 107° East  Level Estimated
Fri 03:25:00 PM 50.2839 7.2493 107° East  Level Estimated
Fri 03:26:00 PM 50.2589 7.3786 107° East  Level Estimated
Fri 03:27:00 PM 50.2338 7.5077 107° East  Level Estimated
Fri 03:28:00 PM 50.2086 7.6367 107° East  Level Estimated
Fri 03:29:00 PM 50.1832 7.7656 107° East  Level Estimated
Fri 03:30:00 PM 50.1577 7.8943 107° East  Level Estimated
Fri 03:31:00 PM 50.1320 8.0229 107° East  Level Estimated
Fri 03:32:00 PM 50.1062 8.1514 107° East  Level Estimated
Fri 03:33:00 PM 50.0802 8.2797 107° East  Level Estimated
Fri 03:34:00 PM 50.0541 8.4079 108° East  Level Estimated
Fri 03:35:00 PM 50.0279 8.5360 108° East  Level Estimated
Fri 03:36:00 PM 50.0264 8.5431 108° East  Level Estimated
Fri 03:37:00 PM 50.0264 8.5431 73° East  Level Estimated
Fri 03:38:00 PM 50.0264 8.5431 73° East  Level Estimated
Fri 03:39:00 PM 50.0264 8.5431 73° East  Level Estimated
Fri 03:40:00 PM 50.0264 8.5431 73° East  Level Estimated
Fri 03:41:00 PM 50.0264 8.5431 73° East  Level Estimated
Fri 03:42:00 PM 50.0264 8.5431 73° East  Level Estimated
Fri 03:43:00 PM 50.0264 8.5431 73° East  Level Estimated
Fri 03:44:00 PM 50.0264 8.5431 73° East  Level Estimated
Fri 03:45:00 PM 50.0264 8.5431 73° East  Level Estimated
Fri 03:46:00 PM 50.0264 8.5431 73° East  Level Estimated
Fri 03:47:00 PM 50.0264 8.5431 73° East  Level Estimated
Fri 03:48:00 PM 50.0264 8.5431 73° East  Level Estimated
Fri 03:49:00 PM 50.0264 8.5431 73° East  Level Estimated

Login

Don't have an account? Register now (free) for customized features, flight alerts, and more!